createdAt,value
2024-02-13T00:00:11.826Z,5.03
2024-02-13T00:01:46.248Z,4.50
2024-02-13T00:03:19.365Z,4.47
2024-02-13T00:04:55.883Z,5.25
2024-02-13T00:06:29.128Z,4.78
2024-02-13T00:08:03.049Z,4.22
2024-02-13T00:09:36.757Z,4.60
2024-02-13T00:11:11.311Z,4.72
2024-02-13T00:12:45.668Z,4.80
2024-02-13T00:14:18.760Z,5.22
2024-02-13T00:15:52.962Z,5.20
2024-02-13T00:17:26.486Z,5.55
2024-02-13T00:19:03.116Z,4.90
2024-02-13T00:20:37.794Z,4.53
2024-02-13T00:22:12.870Z,4.95
2024-02-13T00:23:45.801Z,5.00
2024-02-13T00:25:20.154Z,4.50
2024-02-13T00:26:53.807Z,4.75
2024-02-13T00:28:27.845Z,4.50
2024-02-13T00:30:03.818Z,5.80
2024-02-13T00:31:38.497Z,6.30
2024-02-13T00:33:11.389Z,5.40
2024-02-13T00:34:45.859Z,4.55
2024-02-13T00:36:21.252Z,6.72
2024-02-13T00:37:55.190Z,5.15
2024-02-13T00:39:28.407Z,5.72
2024-02-13T00:41:05.605Z,4.60
2024-02-13T00:42:39.916Z,5.47
2024-02-13T00:44:13.426Z,6.85
2024-02-13T00:45:47.710Z,4.93
2024-02-13T00:47:25.329Z,5.03
2024-02-13T00:48:58.223Z,5.10
2024-02-13T00:50:32.499Z,5.63
2024-02-13T00:52:08.275Z,6.20
2024-02-13T00:53:42.349Z,5.07
2024-02-13T00:55:16.436Z,5.30
2024-02-13T00:56:49.679Z,5.50
2024-02-13T00:58:23.556Z,5.65
2024-02-13T00:59:56.491Z,5.38
2024-02-13T01:01:30.265Z,5.82
2024-02-13T01:03:03.730Z,5.60
2024-02-13T01:04:37.984Z,4.88
2024-02-13T01:06:10.778Z,6.28
2024-02-13T01:07:46.583Z,6.35
2024-02-13T01:09:20.057Z,5.72
2024-02-13T01:10:54.348Z,5.88
2024-02-13T01:12:27.888Z,5.40
2024-02-13T01:14:02.302Z,5.57
2024-02-13T01:15:35.722Z,6.32
2024-02-13T01:17:12.460Z,5.32
2024-02-13T01:18:45.448Z,5.55
2024-02-13T01:20:19.786Z,5.60
2024-02-13T01:21:54.046Z,5.72
2024-02-13T01:23:28.405Z,4.88
2024-02-13T01:25:02.350Z,5.55
2024-02-13T01:26:36.137Z,5.95
2024-02-13T01:28:10.429Z,5.40
2024-02-13T01:29:44.348Z,5.85
2024-02-13T01:31:17.871Z,6.88
2024-02-13T01:32:51.821Z,5.53
2024-02-13T01:34:25.147Z,4.95
2024-02-13T01:35:59.113Z,5.85
2024-02-13T01:37:32.742Z,5.63
2024-02-13T01:39:10.501Z,5.70
2024-02-13T01:40:43.995Z,5.40
2024-02-13T01:42:18.275Z,6.75
2024-02-13T01:43:51.367Z,6.10
2024-02-13T01:45:25.544Z,6.90
2024-02-13T01:46:59.068Z,8.80
2024-02-13T01:48:33.070Z,6.82
2024-02-13T01:50:06.449Z,7.22
2024-02-13T01:51:42.410Z,9.20
2024-02-13T01:53:16.330Z,7.85
2024-02-13T01:54:53.370Z,8.13
2024-02-13T01:56:29.307Z,7.55
2024-02-13T01:58:03.582Z,8.25
2024-02-13T01:59:40.627Z,7.57
2024-02-13T02:01:13.669Z,7.55
2024-02-13T02:02:50.286Z,7.13
2024-02-13T02:04:29.618Z,7.38
2024-02-13T02:06:05.308Z,7.05
2024-02-13T02:07:40.895Z,6.80
2024-02-13T02:09:14.756Z,7.85
2024-02-13T02:10:50.034Z,7.72
2024-02-13T02:12:23.262Z,7.22
2024-02-13T02:13:57.141Z,7.95
2024-02-13T02:15:30.087Z,7.28
2024-02-13T02:17:10.957Z,7.25
2024-02-13T02:18:45.430Z,6.47
2024-02-13T02:20:18.497Z,7.45
2024-02-13T02:21:52.348Z,8.93
2024-02-13T02:23:25.333Z,8.23
2024-02-13T02:24:59.761Z,7.32
2024-02-13T02:26:35.178Z,6.88
2024-02-13T02:28:08.100Z,6.20
2024-02-13T02:29:41.914Z,6.78
2024-02-13T02:31:17.228Z,6.32
2024-02-13T02:32:51.741Z,7.07
2024-02-13T02:34:25.105Z,5.68
2024-02-13T02:35:58.952Z,5.35
2024-02-13T02:37:33.392Z,4.90
2024-02-13T02:39:07.213Z,6.43
2024-02-13T02:40:40.017Z,6.43
2024-02-13T02:42:15.603Z,6.93
2024-02-13T02:43:48.947Z,6.43
2024-02-13T02:45:22.969Z,8.65
2024-02-13T02:46:55.818Z,7.43
2024-02-13T02:48:30.201Z,6.80
2024-02-13T02:50:04.609Z,6.75
2024-02-13T02:51:38.659Z,7.97
2024-02-13T02:53:12.097Z,6.25
2024-02-13T02:54:46.060Z,6.53
2024-02-13T02:56:19.347Z,6.90
2024-02-13T02:57:54.761Z,7.15
2024-02-13T02:59:30.261Z,6.78
2024-02-13T03:01:03.397Z,6.90
2024-02-13T03:02:37.900Z,7.03
2024-02-13T03:04:12.038Z,6.82
2024-02-13T03:05:45.791Z,6.47
2024-02-13T03:07:19.712Z,6.90
2024-02-13T03:08:53.320Z,6.90
2024-02-13T03:10:27.182Z,6.63
2024-02-13T03:12:01.177Z,7.68
2024-02-13T03:13:36.348Z,7.90
2024-02-13T03:15:10.135Z,7.90
2024-02-13T03:16:46.247Z,9.30
2024-02-13T03:18:20.979Z,7.38
2024-02-13T03:19:54.815Z,8.90
2024-02-13T03:21:28.148Z,8.98
2024-02-13T03:23:01.919Z,8.15
2024-02-13T03:24:34.693Z,8.27
2024-02-13T03:26:08.655Z,7.63
2024-02-13T03:27:42.828Z,8.20
2024-02-13T03:29:18.027Z,7.38
2024-02-13T03:30:54.977Z,7.40
2024-02-13T03:32:29.041Z,6.85
2024-02-13T03:34:02.298Z,7.78
2024-02-13T03:35:36.214Z,7.18
2024-02-13T03:37:09.836Z,7.32
2024-02-13T03:38:44.706Z,9.48
2024-02-13T03:40:18.845Z,8.43
2024-02-13T03:41:52.624Z,8.00
2024-02-13T03:43:26.441Z,9.75
2024-02-13T03:45:00.654Z,9.48
2024-02-13T03:46:34.464Z,9.88
2024-02-13T03:48:08.658Z,10.10
2024-02-13T03:49:42.834Z,8.75
2024-02-13T03:51:15.752Z,9.05
2024-02-13T03:52:49.865Z,8.18
2024-02-13T03:54:23.353Z,9.25
2024-02-13T03:55:57.149Z,8.93
2024-02-13T03:57:31.526Z,8.75
2024-02-13T03:59:05.575Z,8.77
2024-02-13T04:00:41.866Z,9.07
2024-02-13T04:02:16.311Z,9.85
2024-02-13T04:03:49.328Z,8.80
2024-02-13T04:05:23.408Z,9.50
2024-02-13T04:06:56.481Z,8.10
2024-02-13T04:08:31.388Z,10.45
2024-02-13T04:10:04.907Z,10.57
2024-02-13T04:11:38.962Z,11.25
2024-02-13T04:13:11.912Z,10.57
2024-02-13T04:14:46.118Z,10.00
2024-02-13T04:16:22.570Z,11.55
2024-02-13T04:17:57.126Z,9.95
2024-02-13T04:19:29.994Z,10.15
2024-02-13T04:21:04.126Z,10.10
2024-02-13T04:22:37.379Z,10.80
2024-02-13T04:24:11.188Z,10.82
2024-02-13T04:25:44.051Z,12.00
2024-02-13T04:27:19.384Z,9.98
2024-02-13T04:28:52.428Z,10.88
2024-02-13T04:30:26.378Z,11.75
2024-02-13T04:32:01.342Z,10.52
2024-02-13T04:33:35.209Z,10.70
2024-02-13T04:35:09.844Z,12.15
2024-02-13T04:36:45.046Z,10.38
2024-02-13T04:38:18.409Z,10.45
2024-02-13T04:39:52.285Z,11.35
2024-02-13T04:41:25.303Z,10.95
2024-02-13T04:42:59.365Z,11.55
2024-02-13T04:44:32.393Z,10.77
2024-02-13T04:46:06.220Z,11.27
2024-02-13T04:47:41.408Z,10.70
2024-02-13T04:49:14.530Z,11.50
2024-02-13T04:50:48.704Z,12.65
2024-02-13T04:52:22.045Z,11.88
2024-02-13T04:53:57.031Z,11.73
2024-02-13T04:55:29.872Z,13.52
2024-02-13T04:57:04.983Z,11.02
2024-02-13T04:58:39.317Z,12.32
2024-02-13T05:00:19.911Z,10.48
2024-02-13T05:01:53.777Z,10.55
2024-02-13T05:03:40.221Z,10.55
2024-02-13T05:05:31.746Z,11.15
2024-02-13T05:07:24.648Z,10.85
2024-02-13T05:08:57.650Z,10.05
2024-02-13T05:10:31.833Z,11.32
2024-02-13T05:12:07.706Z,10.82
2024-02-13T05:13:40.718Z,10.68
2024-02-13T05:15:15.301Z,13.48
2024-02-13T05:16:49.002Z,9.85
2024-02-13T05:18:22.923Z,10.18
2024-02-13T05:19:57.289Z,11.10
2024-02-13T05:21:31.199Z,11.35
2024-02-13T05:23:04.581Z,10.35
2024-02-13T05:24:40.304Z,11.70
2024-02-13T05:26:14.284Z,10.55
2024-02-13T05:27:49.752Z,9.60
2024-02-13T05:29:23.521Z,10.65
2024-02-13T05:30:56.985Z,11.55
2024-02-13T05:32:31.782Z,10.73
2024-02-13T05:34:06.095Z,12.70
2024-02-13T05:35:42.687Z,12.27
2024-02-13T05:37:15.748Z,10.40
2024-02-13T05:38:50.013Z,12.07
2024-02-13T05:40:23.969Z,11.10
2024-02-13T05:41:57.943Z,12.85
2024-02-13T05:43:30.717Z,12.20
2024-02-13T05:45:05.773Z,12.32
2024-02-13T05:46:39.600Z,10.45
2024-02-13T05:48:14.765Z,10.75
2024-02-13T05:49:49.279Z,12.20
2024-02-13T05:51:24.627Z,10.90
2024-02-13T05:52:57.409Z,11.48
2024-02-13T05:54:31.503Z,12.75
2024-02-13T05:56:05.512Z,11.10
2024-02-13T05:57:46.290Z,12.02
2024-02-13T05:59:19.427Z,12.63
2024-02-13T06:00:54.075Z,12.40
2024-02-13T06:02:27.372Z,13.98
2024-02-13T06:04:02.886Z,17.20
2024-02-13T06:05:36.904Z,16.05
2024-02-13T06:07:12.288Z,15.18
2024-02-13T06:08:45.608Z,15.60
2024-02-13T06:10:19.654Z,13.50
2024-02-13T06:11:53.711Z,17.77
2024-02-13T06:13:27.966Z,17.92
2024-02-13T06:15:02.774Z,15.50
2024-02-13T06:16:36.794Z,26.90
2024-02-13T06:18:09.791Z,17.90
2024-02-13T06:19:43.776Z,41.95
2024-02-13T06:21:23.273Z,34.05
2024-02-13T06:23:00.086Z,18.33
2024-02-13T06:24:33.094Z,15.43
2024-02-13T06:26:06.962Z,15.95
2024-02-13T06:27:39.920Z,15.05
2024-02-13T06:29:13.840Z,14.55
2024-02-13T06:30:48.825Z,15.43
2024-02-13T06:32:21.717Z,15.95
2024-02-13T06:33:56.949Z,14.90
2024-02-13T06:35:29.882Z,15.30
2024-02-13T06:37:03.901Z,14.43
2024-02-13T06:38:39.458Z,15.95
2024-02-13T06:40:13.760Z,18.60
2024-02-13T06:41:48.095Z,16.30
2024-02-13T06:43:22.733Z,14.95
2024-02-13T06:44:56.858Z,13.43
2024-02-13T06:46:30.619Z,16.45
2024-02-13T06:48:04.152Z,17.48
2024-02-13T06:49:38.611Z,14.35
2024-02-13T06:51:13.835Z,14.27
2024-02-13T06:52:51.718Z,14.68
2024-02-13T06:54:26.066Z,13.80
2024-02-13T06:56:00.561Z,13.93
2024-02-13T06:57:35.951Z,13.48
2024-02-13T06:59:10.135Z,14.18
2024-02-13T07:00:43.106Z,15.77
2024-02-13T07:02:17.100Z,14.27
2024-02-13T07:03:50.186Z,14.15
2024-02-13T07:05:24.514Z,14.35
2024-02-13T07:07:08.722Z,14.73
2024-02-13T07:08:52.642Z,15.73
2024-02-13T07:10:27.607Z,16.67
2024-02-13T07:12:02.149Z,14.50
2024-02-13T07:13:35.159Z,21.25
2024-02-13T07:15:10.437Z,21.08
2024-02-13T07:16:45.208Z,16.10
2024-02-13T07:18:19.506Z,14.73
2024-02-13T07:19:52.537Z,16.73
2024-02-13T07:21:29.498Z,16.83
2024-02-13T07:23:04.993Z,19.05
2024-02-13T07:24:40.229Z,18.35
2024-02-13T07:26:14.607Z,18.17
2024-02-13T07:27:50.174Z,24.67
2024-02-13T07:29:23.238Z,22.83
2024-02-13T07:30:57.686Z,18.55
2024-02-13T07:32:31.425Z,20.27
2024-02-13T07:34:06.251Z,19.40
2024-02-13T07:35:39.572Z,16.80
2024-02-13T07:37:13.602Z,17.60
2024-02-13T07:38:47.942Z,17.33
2024-02-13T07:40:21.991Z,18.10
2024-02-13T07:41:56.409Z,19.00
2024-02-13T07:43:30.606Z,17.38
2024-02-13T07:45:05.215Z,17.83
2024-02-13T07:46:41.512Z,16.70
2024-02-13T07:48:15.011Z,17.05
2024-02-13T07:49:49.590Z,15.48
2024-02-13T07:51:22.858Z,17.55
2024-02-13T07:52:56.771Z,17.42
2024-02-13T07:54:30.157Z,15.27
2024-02-13T07:56:04.931Z,15.00
2024-02-13T07:57:39.332Z,14.88
2024-02-13T07:59:13.554Z,15.43
2024-02-13T08:00:48.239Z,15.48
2024-02-13T08:02:23.541Z,15.75
2024-02-13T08:03:57.528Z,14.85
2024-02-13T08:05:34.867Z,14.60
2024-02-13T08:07:10.370Z,13.70
2024-02-13T08:08:43.510Z,15.65
2024-02-13T08:10:17.749Z,16.23
2024-02-13T08:11:53.205Z,18.15
2024-02-13T08:13:29.021Z,17.00
2024-02-13T08:15:02.218Z,16.77
2024-02-13T08:16:37.521Z,16.00
2024-02-13T08:18:10.984Z,18.48
2024-02-13T08:19:45.197Z,17.00
2024-02-13T08:21:18.573Z,15.68
2024-02-13T08:22:53.578Z,16.40
2024-02-13T08:24:26.740Z,13.32
2024-02-13T08:26:00.788Z,14.88
2024-02-13T08:27:36.438Z,19.60
2024-02-13T08:29:12.167Z,15.07
2024-02-13T08:30:45.273Z,14.98
2024-02-13T08:32:20.462Z,14.20
2024-02-13T08:33:55.170Z,14.77
2024-02-13T08:35:28.871Z,15.23
2024-02-13T08:37:04.919Z,14.18
2024-02-13T08:38:42.141Z,13.23
2024-02-13T08:40:16.938Z,14.20
2024-02-13T08:41:50.326Z,12.30
2024-02-13T08:43:24.670Z,12.80
2024-02-13T08:45:01.049Z,12.32
2024-02-13T08:46:35.215Z,14.43
2024-02-13T08:48:08.966Z,12.45
2024-02-13T08:49:43.238Z,11.27
2024-02-13T08:51:17.703Z,10.65
2024-02-13T08:52:50.845Z,10.30
2024-02-13T08:54:25.366Z,10.77
2024-02-13T08:55:59.619Z,10.40
2024-02-13T08:57:32.813Z,9.63
2024-02-13T08:59:08.153Z,11.10
2024-02-13T09:00:42.658Z,9.63
2024-02-13T09:02:17.317Z,10.32
2024-02-13T09:03:50.305Z,10.20
2024-02-13T09:05:24.446Z,12.15
2024-02-13T09:06:57.909Z,11.52
2024-02-13T09:08:32.226Z,11.07
2024-02-13T09:10:06.775Z,11.02
2024-02-13T09:11:40.746Z,9.70
2024-02-13T09:13:14.529Z,8.27
2024-02-13T09:14:48.807Z,9.27
2024-02-13T09:16:24.112Z,8.05
2024-02-13T09:17:57.399Z,9.48
2024-02-13T09:19:32.439Z,9.30
2024-02-13T09:21:07.752Z,8.45
2024-02-13T09:22:43.714Z,8.75
2024-02-13T09:24:17.906Z,8.85
2024-02-13T09:25:53.410Z,8.45
2024-02-13T09:27:27.949Z,8.35
2024-02-13T09:29:02.271Z,9.65
2024-02-13T09:30:36.389Z,10.73
2024-02-13T09:32:11.586Z,7.93
2024-02-13T09:33:47.230Z,8.43
2024-02-13T09:35:20.444Z,8.50
2024-02-13T09:36:54.493Z,9.48
2024-02-13T09:38:28.616Z,9.25
2024-02-13T09:40:01.592Z,8.68
2024-02-13T09:41:37.777Z,8.52
2024-02-13T09:43:11.560Z,10.18
2024-02-13T09:44:45.915Z,8.52
2024-02-13T09:46:19.427Z,8.35
2024-02-13T09:47:58.863Z,6.28
2024-02-13T09:49:34.638Z,7.75
2024-02-13T09:51:10.023Z,8.30
2024-02-13T09:52:48.777Z,7.40
2024-02-13T09:54:24.296Z,7.57
2024-02-13T09:55:59.989Z,8.23
2024-02-13T09:57:33.688Z,8.65
2024-02-13T09:59:09.099Z,7.78
2024-02-13T10:00:42.752Z,7.97
2024-02-13T10:02:18.964Z,8.23
2024-02-13T10:03:53.704Z,7.53
2024-02-13T10:05:27.754Z,9.75
2024-02-13T10:07:05.959Z,7.25
2024-02-13T10:08:41.440Z,8.25
2024-02-13T10:10:16.236Z,8.05
2024-02-13T10:11:52.690Z,9.25
2024-02-13T10:13:31.571Z,8.10
2024-02-13T10:15:06.473Z,7.43
2024-02-13T10:16:40.558Z,7.93
2024-02-13T10:18:15.495Z,8.52
2024-02-13T10:19:50.935Z,8.60
2024-02-13T10:21:30.029Z,9.40
2024-02-13T10:23:04.049Z,8.02
2024-02-13T10:24:38.314Z,7.63
2024-02-13T10:26:12.342Z,7.25
2024-02-13T10:27:47.306Z,7.40
2024-02-13T10:29:21.633Z,7.65
2024-02-13T10:30:55.738Z,7.85
2024-02-13T10:32:29.000Z,9.38
2024-02-13T10:34:05.514Z,7.85
2024-02-13T10:35:40.705Z,7.45
2024-02-13T10:37:17.667Z,6.90
2024-02-13T10:38:52.191Z,6.70
2024-02-13T10:40:27.486Z,6.65
2024-02-13T10:42:03.024Z,7.55
2024-02-13T10:43:43.495Z,7.20
2024-02-13T10:45:18.872Z,6.97
2024-02-13T10:46:57.563Z,6.82
2024-02-13T10:48:39.484Z,6.10
2024-02-13T10:50:14.121Z,5.43
2024-02-13T10:51:49.898Z,7.38
2024-02-13T10:53:24.713Z,5.80
2024-02-13T10:55:07.527Z,5.75
2024-02-13T10:56:41.731Z,5.70
2024-02-13T10:58:24.284Z,6.07
2024-02-13T11:00:02.785Z,6.53
2024-02-13T11:01:37.952Z,5.65
2024-02-13T11:03:13.569Z,6.15
2024-02-13T11:04:49.355Z,5.72
2024-02-13T11:06:24.462Z,7.07
2024-02-13T11:08:00.385Z,5.78
2024-02-13T11:09:33.558Z,5.82
2024-02-13T11:11:17.025Z,5.88
2024-02-13T11:12:56.034Z,6.10
2024-02-13T11:14:30.304Z,4.10
2024-02-13T11:16:06.879Z,5.13
2024-02-13T11:17:47.550Z,4.70
2024-02-13T11:19:22.826Z,5.43
2024-02-13T11:21:02.635Z,5.35
2024-02-13T11:22:38.275Z,4.57
2024-02-13T11:24:21.978Z,4.97
2024-02-13T11:25:59.702Z,4.85
2024-02-13T11:27:33.916Z,4.50
2024-02-13T11:29:11.330Z,4.93
2024-02-13T11:30:45.689Z,5.75
2024-02-13T11:32:26.666Z,4.88
2024-02-13T11:34:09.061Z,4.00
2024-02-13T11:35:48.561Z,4.28
2024-02-13T11:37:28.171Z,3.15
2024-02-13T11:39:05.688Z,3.50
2024-02-13T11:40:43.672Z,2.33
2024-02-13T11:42:19.293Z,2.67
2024-02-13T11:43:53.412Z,2.72
2024-02-13T11:45:27.648Z,2.70
2024-02-13T11:47:01.703Z,2.35
2024-02-13T11:48:36.236Z,3.78
2024-02-13T11:50:10.900Z,3.33
2024-02-13T11:51:44.276Z,3.20
2024-02-13T11:53:19.704Z,3.15
2024-02-13T11:54:55.907Z,2.60
2024-02-13T11:56:31.656Z,3.72
2024-02-13T11:58:07.825Z,3.30
2024-02-13T11:59:42.980Z,2.60
2024-02-13T12:01:20.985Z,2.83
2024-02-13T12:02:56.294Z,2.90
2024-02-13T12:04:31.002Z,3.40
2024-02-13T12:06:07.194Z,2.83
2024-02-13T12:07:42.923Z,3.05
2024-02-13T12:09:17.870Z,2.63
2024-02-13T12:10:51.453Z,2.50
2024-02-13T12:12:27.411Z,2.97
2024-02-13T12:14:01.262Z,2.83
2024-02-13T12:15:35.411Z,3.22
2024-02-13T12:17:11.257Z,3.10
2024-02-13T12:18:46.353Z,2.80
2024-02-13T12:20:27.880Z,4.00
2024-02-13T12:22:07.367Z,3.05
2024-02-13T12:23:44.695Z,3.45
2024-02-13T12:25:19.463Z,2.67
2024-02-13T12:26:53.899Z,2.90
2024-02-13T12:28:29.741Z,3.30
2024-02-13T12:30:04.682Z,2.40
2024-02-13T12:31:40.394Z,2.63
2024-02-13T12:33:21.561Z,2.90
2024-02-13T12:34:59.989Z,2.78
2024-02-13T12:36:34.470Z,2.25
2024-02-13T12:38:13.474Z,3.05
2024-02-13T12:39:48.226Z,2.70
2024-02-13T12:41:21.276Z,3.28
2024-02-13T12:42:56.162Z,2.30
2024-02-13T12:44:32.169Z,3.03
2024-02-13T12:46:06.758Z,2.90
2024-02-13T12:47:39.923Z,3.00
2024-02-13T12:49:14.968Z,3.22
2024-02-13T12:50:48.153Z,3.72
2024-02-13T12:52:24.064Z,2.95
2024-02-13T12:53:58.399Z,2.60
2024-02-13T12:55:33.250Z,2.63
2024-02-13T12:57:07.807Z,2.55
2024-02-13T12:58:43.609Z,2.80
2024-02-13T13:00:19.167Z,2.67
2024-02-13T13:01:55.182Z,2.60
2024-02-13T13:03:28.342Z,2.42
2024-02-13T13:05:04.341Z,3.30
2024-02-13T13:06:38.618Z,2.88
2024-02-13T13:08:15.567Z,2.70
2024-02-13T13:09:49.758Z,3.10
2024-02-13T13:11:23.965Z,2.30
2024-02-13T13:12:58.142Z,3.00
2024-02-13T13:14:33.178Z,2.40
2024-02-13T13:16:08.651Z,2.80
2024-02-13T13:17:43.053Z,2.60
2024-02-13T13:19:16.652Z,2.55
2024-02-13T13:20:52.459Z,2.30
2024-02-13T13:22:27.755Z,2.38
2024-02-13T13:24:04.339Z,2.17
2024-02-13T13:25:41.493Z,2.67
2024-02-13T13:27:19.600Z,2.60
2024-02-13T13:28:52.967Z,2.50
2024-02-13T13:30:28.121Z,2.10
2024-02-13T13:32:02.782Z,2.00
2024-02-13T13:33:37.099Z,2.58
2024-02-13T13:35:11.965Z,2.67
2024-02-13T13:36:46.162Z,2.28
2024-02-13T13:38:22.619Z,2.20
2024-02-13T13:39:57.032Z,2.75
2024-02-13T13:41:31.742Z,2.33
2024-02-13T13:43:06.784Z,2.15
2024-02-13T13:44:41.935Z,1.83
2024-02-13T13:46:15.880Z,2.67
2024-02-13T13:47:53.306Z,2.30
2024-02-13T13:49:31.985Z,2.50
2024-02-13T13:51:06.678Z,3.15
2024-02-13T13:52:40.090Z,2.30
2024-02-13T13:54:14.217Z,1.90
2024-02-13T13:55:47.773Z,2.17
2024-02-13T13:57:21.907Z,2.30
2024-02-13T13:58:59.859Z,2.03
2024-02-13T14:00:33.979Z,2.22
2024-02-13T14:02:08.686Z,2.30
2024-02-13T14:03:44.808Z,2.13
2024-02-13T14:05:20.254Z,2.28
2024-02-13T14:06:53.538Z,2.42
2024-02-13T14:08:28.179Z,2.22
2024-02-13T14:10:01.462Z,2.60
2024-02-13T14:11:35.888Z,2.00
2024-02-13T14:13:10.579Z,2.05
2024-02-13T14:14:43.748Z,2.80
2024-02-13T14:16:19.562Z,2.13
2024-02-13T14:17:53.535Z,1.92
2024-02-13T14:19:29.877Z,2.67
2024-02-13T14:21:04.427Z,2.42
2024-02-13T14:22:38.813Z,2.50
2024-02-13T14:24:13.501Z,2.22
2024-02-13T14:25:46.777Z,2.42
2024-02-13T14:27:21.360Z,2.40
2024-02-13T14:28:55.739Z,2.85
2024-02-13T14:30:30.745Z,2.10
2024-02-13T14:32:06.154Z,2.35
2024-02-13T14:33:39.693Z,2.42
2024-02-13T14:35:18.363Z,2.00
2024-02-13T14:36:51.480Z,3.15
2024-02-13T14:38:25.842Z,2.10
2024-02-13T14:39:58.963Z,2.15
2024-02-13T14:41:33.895Z,2.10
2024-02-13T14:43:08.463Z,1.92
2024-02-13T14:44:43.255Z,2.28
2024-02-13T14:46:16.941Z,2.90
2024-02-13T14:47:53.039Z,2.63
2024-02-13T14:49:27.166Z,2.30
2024-02-13T14:51:02.982Z,3.33
2024-02-13T14:52:36.420Z,2.10
2024-02-13T14:54:11.198Z,2.22
2024-02-13T14:55:45.560Z,1.70
2024-02-13T14:57:19.599Z,3.28
2024-02-13T14:58:53.682Z,1.75
2024-02-13T15:00:28.155Z,1.98
2024-02-13T15:02:02.861Z,1.92
2024-02-13T15:03:44.102Z,1.58
2024-02-13T15:05:18.252Z,2.60
2024-02-13T15:06:53.395Z,2.30
2024-02-13T15:08:27.802Z,2.05
2024-02-13T15:10:01.132Z,2.17
2024-02-13T15:11:36.674Z,2.00
2024-02-13T15:13:11.100Z,1.90
2024-02-13T15:14:45.433Z,1.88
2024-02-13T15:16:19.488Z,1.90
2024-02-13T15:17:54.838Z,2.22
2024-02-13T15:19:29.761Z,2.58
2024-02-13T15:21:05.974Z,2.05
2024-02-13T15:22:41.733Z,3.33
2024-02-13T15:24:18.155Z,1.65
2024-02-13T15:25:55.271Z,2.28
2024-02-13T15:27:29.374Z,1.80
2024-02-13T15:29:02.469Z,1.73
2024-02-13T15:30:38.993Z,1.90
2024-02-13T15:32:15.310Z,2.05
2024-02-13T15:33:50.431Z,1.77
2024-02-13T15:35:32.521Z,1.50
2024-02-13T15:37:22.051Z,1.70
2024-02-13T15:39:15.131Z,2.90
2024-02-13T15:41:03.026Z,2.10
2024-02-13T15:42:54.645Z,1.90
2024-02-13T15:44:46.438Z,1.80
2024-02-13T15:46:38.566Z,2.45
2024-02-13T15:48:16.383Z,1.65
2024-02-13T15:49:51.384Z,1.70
2024-02-13T15:51:27.910Z,1.40
2024-02-13T15:53:02.379Z,2.47
2024-02-13T15:54:37.255Z,1.70
2024-02-13T15:56:11.632Z,2.50
2024-02-13T15:57:46.329Z,2.05
2024-02-13T15:59:19.932Z,1.67
2024-02-13T16:00:54.072Z,1.83
2024-02-13T16:02:28.362Z,2.45
2024-02-13T16:04:03.126Z,2.25
2024-02-13T16:05:38.915Z,2.17
2024-02-13T16:07:12.322Z,2.55
2024-02-13T16:08:46.958Z,2.20
2024-02-13T16:10:21.984Z,2.25
2024-02-13T16:11:56.910Z,3.03
2024-02-13T16:13:31.047Z,2.22
2024-02-13T16:15:04.966Z,2.65
2024-02-13T16:16:39.162Z,2.15
2024-02-13T16:18:13.313Z,2.30
2024-02-13T16:19:46.809Z,2.38
2024-02-13T16:21:21.474Z,2.47
2024-02-13T16:22:54.402Z,2.58
2024-02-13T16:24:28.371Z,2.60
2024-02-13T16:26:02.909Z,3.63
2024-02-13T16:27:37.375Z,2.92
2024-02-13T16:29:10.549Z,2.83
2024-02-13T16:30:47.194Z,2.70
2024-02-13T16:32:32.861Z,3.40
2024-02-13T16:34:12.580Z,3.70
2024-02-13T16:35:48.166Z,3.30
2024-02-13T16:37:21.290Z,4.30
2024-02-13T16:38:55.920Z,3.55
2024-02-13T16:40:29.751Z,4.00
2024-02-13T16:42:06.505Z,4.05
2024-02-13T16:43:43.051Z,4.50
2024-02-13T16:45:16.130Z,4.18
2024-02-13T16:46:51.390Z,3.58
2024-02-13T16:48:24.718Z,3.80
2024-02-13T16:49:59.441Z,3.90
2024-02-13T16:51:32.694Z,4.55
2024-02-13T16:53:07.973Z,4.85
2024-02-13T16:54:42.173Z,4.97
2024-02-13T16:56:18.726Z,4.30
2024-02-13T16:57:54.653Z,5.03
2024-02-13T16:59:27.860Z,5.00
2024-02-13T17:01:03.142Z,5.00
2024-02-13T17:02:36.745Z,4.90
2024-02-13T17:04:11.889Z,5.00
2024-02-13T17:05:46.266Z,5.20
2024-02-13T17:07:21.268Z,4.47
2024-02-13T17:08:55.858Z,7.07
2024-02-13T17:10:29.908Z,5.75
2024-02-13T17:12:03.405Z,6.82
2024-02-13T17:13:38.922Z,6.85
2024-02-13T17:15:14.517Z,7.15
2024-02-13T17:16:49.081Z,6.38
2024-02-13T17:18:23.970Z,7.18
2024-02-13T17:19:57.393Z,7.22
2024-02-13T17:21:32.160Z,7.72
2024-02-13T17:23:09.222Z,8.10
2024-02-13T17:24:42.328Z,8.30
2024-02-13T17:26:20.549Z,6.55
2024-02-13T17:27:53.640Z,6.18
2024-02-13T17:29:29.916Z,6.68
2024-02-13T17:31:03.289Z,6.68
2024-02-13T17:32:38.777Z,10.73
2024-02-13T17:34:12.326Z,11.32
2024-02-13T17:35:46.770Z,13.02
2024-02-13T17:37:21.487Z,11.82
2024-02-13T17:38:55.682Z,7.38
2024-02-13T17:40:28.643Z,6.80
2024-02-13T17:42:04.954Z,7.90
2024-02-13T17:43:38.141Z,7.45
2024-02-13T17:45:14.042Z,7.80
2024-02-13T17:46:47.435Z,8.95
2024-02-13T17:48:22.443Z,13.35
2024-02-13T17:49:56.952Z,15.73
2024-02-13T17:51:30.157Z,12.15
2024-02-13T17:53:04.448Z,12.00
2024-02-13T17:54:37.722Z,10.40
2024-02-13T17:56:11.905Z,10.15
2024-02-13T17:57:46.611Z,10.32
2024-02-13T17:59:19.835Z,9.90
2024-02-13T18:00:55.886Z,12.07
2024-02-13T18:02:30.070Z,11.90
2024-02-13T18:05:37.770Z,12.02
2024-02-13T18:07:13.838Z,11.73
2024-02-13T18:08:48.362Z,11.15
2024-02-13T18:10:21.846Z,12.10
2024-02-13T18:12:00.270Z,10.82
2024-02-13T18:13:33.646Z,9.63
2024-02-13T18:15:08.619Z,12.43
2024-02-13T18:16:42.833Z,7.80
2024-02-13T18:18:17.960Z,6.47
2024-02-13T18:19:51.293Z,8.27
2024-02-13T18:21:25.648Z,6.00
2024-02-13T18:22:58.804Z,6.70
2024-02-13T18:24:33.869Z,6.20
2024-02-13T18:26:07.286Z,7.75
2024-02-13T18:27:41.765Z,8.18
2024-02-13T18:29:15.092Z,8.23
2024-02-13T18:30:49.268Z,7.25
2024-02-13T18:32:23.727Z,8.18
2024-02-13T18:33:58.035Z,8.15
2024-02-13T18:35:33.180Z,6.72
2024-02-13T18:37:15.854Z,6.80
2024-02-13T18:38:56.319Z,7.15
2024-02-13T18:40:30.223Z,5.93
2024-02-13T18:42:09.809Z,8.95
2024-02-13T18:43:43.604Z,7.32
2024-02-13T18:45:37.881Z,7.38
2024-02-13T18:47:13.870Z,7.25
2024-02-13T18:48:56.472Z,7.40
2024-02-13T18:50:31.393Z,9.15
2024-02-13T18:52:10.414Z,9.70
2024-02-13T18:53:47.871Z,8.95
2024-02-13T18:55:35.900Z,8.88
2024-02-13T18:57:11.774Z,6.65
2024-02-13T18:58:54.343Z,8.25
2024-02-13T19:00:27.704Z,8.25
2024-02-13T19:02:07.753Z,9.20
2024-02-13T19:03:41.196Z,7.68
2024-02-13T19:05:31.895Z,6.45
2024-02-13T19:07:14.743Z,9.18
2024-02-13T19:08:53.937Z,8.80
2024-02-13T19:10:41.566Z,9.10
2024-02-13T19:12:19.294Z,8.40
2024-02-13T19:13:56.772Z,8.20
2024-02-13T19:15:42.583Z,9.35
2024-02-13T19:17:20.514Z,12.55
2024-02-13T19:19:08.533Z,12.10
2024-02-13T19:20:53.820Z,11.15
2024-02-13T19:22:31.887Z,12.13
2024-02-13T19:24:14.141Z,12.90
2024-02-13T19:25:51.883Z,11.27
2024-02-13T19:27:31.958Z,11.13
2024-02-13T19:29:13.719Z,12.60
2024-02-13T19:30:57.801Z,11.85
2024-02-13T19:32:42.974Z,13.30
2024-02-13T19:34:20.090Z,12.55
2024-02-13T19:35:59.268Z,12.48
2024-02-13T19:37:41.091Z,10.55
2024-02-13T19:39:17.837Z,12.68
2024-02-13T19:41:01.605Z,10.70
2024-02-13T19:42:38.988Z,12.68
2024-02-13T19:44:24.524Z,10.85
2024-02-13T19:46:07.920Z,10.60
2024-02-13T19:47:53.536Z,11.10
2024-02-13T19:49:32.947Z,9.70
2024-02-13T19:51:19.308Z,9.10
2024-02-13T19:53:11.721Z,9.20
2024-02-13T19:54:51.097Z,11.48
2024-02-13T19:56:32.016Z,11.38
2024-02-13T19:58:14.603Z,10.48
2024-02-13T19:59:52.684Z,10.07
2024-02-13T20:01:32.727Z,9.35
2024-02-13T20:03:11.049Z,10.02
2024-02-13T20:04:48.234Z,10.00
2024-02-13T20:06:32.497Z,11.65
2024-02-13T20:08:11.912Z,10.07
2024-02-13T20:09:45.386Z,9.70
2024-02-13T20:11:19.641Z,8.10
2024-02-13T20:12:52.821Z,8.57
2024-02-13T20:14:27.245Z,8.73
2024-02-13T20:16:00.245Z,8.10
2024-02-13T20:17:34.505Z,8.45
2024-02-13T20:19:10.120Z,7.82
2024-02-13T20:20:43.849Z,9.40
2024-02-13T20:22:20.606Z,7.55
2024-02-13T20:23:55.062Z,7.43
2024-02-13T20:25:28.732Z,7.53
2024-02-13T20:27:04.767Z,8.20
2024-02-13T20:28:38.169Z,8.38
2024-02-13T20:30:14.326Z,8.18
2024-02-13T20:31:47.819Z,9.50
2024-02-13T20:33:22.710Z,9.35
2024-02-13T20:34:56.585Z,8.52
2024-02-13T20:36:31.192Z,9.98
2024-02-13T20:38:05.597Z,8.85
2024-02-13T20:39:40.393Z,8.77
2024-02-13T20:41:15.533Z,9.48
2024-02-13T20:42:50.848Z,9.05
2024-02-13T20:44:23.902Z,9.35
2024-02-13T20:45:59.747Z,9.05
2024-02-13T20:47:32.852Z,10.43
2024-02-13T20:49:09.305Z,8.90
2024-02-13T20:50:42.668Z,7.22
2024-02-13T20:52:17.170Z,7.40
2024-02-13T20:53:51.908Z,8.10
2024-02-13T20:55:26.237Z,9.23
2024-02-13T20:57:00.200Z,9.00
2024-02-13T20:58:35.290Z,9.07